^^
Saratoga-Weather Station Historical Data
Daily Summary for April 22, 2020 Units:  English    Metric   Both
Daily Weekly Monthly Yearly Custom
  High: Low: Average:
Temperature: 76.5 °F 65.5 °F 71.1 °F
Dew Point: 67.5 °F 53.1 °F 59 °F
Humidity: 89% 45% 67%
Wind Speed: 15mph 0mph 3.4mph
Wind Gust: 18mph - -
Wind- - West
Pressure: 30 in 29.9 in -
Precipitation: 0 in    
Historical Graphs
 
 
Tabular Data for April 22, 2020
Time Temperature Dew Point Pressure Wind Wind Speed Wind Gust Humidity Rainfall Rate (Hourly) solar
00:00 72.5 °F 67.5 °F 29.9 in NW 0.9 mph 5 mph 84% 0 in 0 W/m2
00:05 72.3 °F 67.3 °F 29.9 in NNW 0.9 mph 4 mph 84% 0 in 0 W/m2
00:10 72.3 °F 67.3 °F 29.9 in NW 2.9 mph 6 mph 84% 0 in 0 W/m2
00:15 72.3 °F 67.3 °F 29.9 in WSW 0.9 mph 4 mph 84% 0 in 0 W/m2
00:21 72.1 °F 67.1 °F 29.9 in East 2 mph 6 mph 84% 0 in 0 W/m2
00:26 72.1 °F 67.1 °F 29.9 in Calm   2 mph 84% 0 in 0 W/m2
00:31 72.1 °F 67.1 °F 29.9 in Calm   2 mph 84% 0 in 0 W/m2
00:36 72 °F 67.3 °F 29.9 in WNW 0.9 mph 1 mph 85% 0 in 0 W/m2
00:41 72 °F 67.3 °F 29.9 in Calm   2 mph 85% 0 in 0 W/m2
00:46 72 °F 67.3 °F 29.9 in Calm   1 mph 85% 0 in 0 W/m2
00:51 71.8 °F 67.1 °F 29.9 in NW 0.9 mph 2 mph 85% 0 in 0 W/m2
00:56 71.8 °F 67.1 °F 29.9 in SSE 0.9 mph 2 mph 85% 0 in 0 W/m2
01:01 71.8 °F 67.1 °F 29.9 in SSW 0.9 mph 4 mph 85% 0 in 0 W/m2
01:06 71.6 °F 67.1 °F 29.9 in Calm   1 mph 86% 0 in 0 W/m2
01:11 71.4 °F 67.1 °F 29.9 in East 0.9 mph 3 mph 86% 0 in 0 W/m2
01:16 71.4 °F 67.1 °F 29.9 in SSE 2.9 mph 3 mph 86% 0 in 0 W/m2
01:21 71.2 °F 66.9 °F 29.9 in East 2 mph 4 mph 86% 0 in 0 W/m2
01:26 71.2 °F 67.1 °F 29.9 in SE 0.9 mph 3 mph 87% 0 in 0 W/m2
01:31 71.1 °F 66.9 °F 29.9 in Calm   3 mph 87% 0 in 0 W/m2
01:36 71.1 °F 66.9 °F 29.9 in SSW 0.9 mph 3 mph 87% 0 in 0 W/m2
01:41 70.9 °F 66.7 °F 29.9 in Calm   4 mph 87% 0 in 0 W/m2
01:46 70.9 °F 66.7 °F 29.9 in Calm   1 mph 87% 0 in 0 W/m2
01:51 70.9 °F 66.7 °F 29.9 in North 0.9 mph 4 mph 87% 0 in 0 W/m2
01:56 70.7 °F 66.6 °F 29.9 in SSE 2 mph 3 mph 87% 0 in 0 W/m2
02:01 70.5 °F 66.4 °F 29.9 in Calm   3 mph 87% 0 in 0 W/m2
02:06 70.5 °F 66.4 °F 29.9 in Calm   1 mph 87% 0 in 0 W/m2
02:11 70.3 °F 66.2 °F 29.9 in SW 0.9 mph 3 mph 87% 0 in 0 W/m2
02:16 70.3 °F 66.6 °F 29.9 in East 0.9 mph 4 mph 88% 0 in 0 W/m2
02:21 70.3 °F 66.6 °F 29.9 in Calm   2 mph 88% 0 in 0 W/m2
02:26 70.2 °F 66.4 °F 29.9 in Calm   2 mph 88% 0 in 0 W/m2
02:31 70.2 °F 66.4 °F 29.9 in Calm   2 mph 88% 0 in 0 W/m2
02:36 70.2 °F 66.4 °F 29.9 in East 4 mph 6 mph 88% 0 in 0 W/m2
02:41 70.2 °F 66.4 °F 29.9 in WNW 2.9 mph 3 mph 88% 0 in 0 W/m2
02:46 70 °F 66.2 °F 29.9 in NNW 2.9 mph 6 mph 88% 0 in 0 W/m2
02:51 70 °F 66.2 °F 29.9 in WSW 2.9 mph 3 mph 88% 0 in 0 W/m2
02:56 69.8 °F 66 °F 29.9 in NE 2.9 mph 4 mph 88% 0 in 0 W/m2
03:01 69.6 °F 65.8 °F 30 in NNE 2 mph 4 mph 88% 0 in 0 W/m2
03:06 69.6 °F 65.8 °F 29.9 in WNW 0.9 mph 3 mph 88% 0 in 0 W/m2
03:11 69.4 °F 65.7 °F 30 in NNE 2.9 mph 3 mph 88% 0 in 0 W/m2
03:17 69.4 °F 65.7 °F 30 in NW 2.9 mph 4 mph 88% 0 in 0 W/m2
03:22 69.4 °F 65.7 °F 29.9 in North 0.9 mph 1 mph 88% 0 in 0 W/m2
03:27 69.4 °F 65.5 °F 29.9 in Calm   4 mph 87% 0 in 0 W/m2
03:32 69.3 °F 65.3 °F 29.9 in WNW 2.9 mph 4 mph 87% 0 in 0 W/m2
03:37 69.3 °F 65.3 °F 29.9 in WNW 2.9 mph 3 mph 87% 0 in 0 W/m2
03:42 69.3 °F 65.3 °F 29.9 in Calm   4 mph 87% 0 in 0 W/m2
03:47 69.3 °F 64.9 °F 29.9 in WNW 2 mph 2 mph 86% 0 in 0 W/m2
03:52 69.1 °F 64.8 °F 30 in WNW 0.9 mph 2 mph 86% 0 in 0 W/m2
03:57 69.1 °F 64.8 °F 29.9 in NW 4.9 mph 5 mph 86% 0 in 0 W/m2
04:02 68.9 °F 64.9 °F 29.9 in East 2 mph 2 mph 87% 0 in 0 W/m2
04:07 68.7 °F 64.8 °F 30 in NNW 0.9 mph 9 mph 87% 0 in 0 W/m2
04:12 68.7 °F 64.4 °F 30 in WSW 2 mph 3 mph 86% 0 in 0 W/m2
04:17 68.7 °F 64.8 °F 30 in WNW 0.9 mph 3 mph 87% 0 in 0 W/m2
04:22 68.5 °F 64.6 °F 30 in South 0.9 mph 4 mph 87% 0 in 0 W/m2
04:27 68.4 °F 64.4 °F 30 in NNW 0.9 mph 4 mph 87% 0 in 0 W/m2
04:32 68.2 °F 64.2 °F 30 in SW 0.9 mph 4 mph 87% 0 in 0 W/m2
04:37 68.2 °F 64.2 °F 30 in Calm   2 mph 87% 0 in 0 W/m2
04:42 68 °F 64.4 °F 30 in NE 2 mph 2 mph 88% 0 in 0 W/m2
04:47 67.8 °F 64.2 °F 30 in Calm   1 mph 88% 0 in 0 W/m2
04:52 67.8 °F 64.2 °F 30 in Calm   3 mph 88% 0 in 0 W/m2
04:58 67.8 °F 64.2 °F 30 in NW 2.9 mph 3 mph 88% 0 in 0 W/m2
05:03 67.6 °F 64 °F 30 in NW 2.9 mph 3 mph 88% 0 in 0 W/m2
05:08 67.6 °F 64 °F 30 in WNW 2 mph 4 mph 88% 0 in 0 W/m2
05:13 67.6 °F 64 °F 30 in NW 2 mph 3 mph 88% 0 in 0 W/m2
05:18 67.6 °F 64 °F 30 in NE 2 mph 3 mph 88% 0 in 0 W/m2
05:23 67.5 °F 63.9 °F 30 in Calm   4 mph 88% 0 in 0 W/m2
05:28 67.5 °F 63.9 °F 30 in SE 0.9 mph 3 mph 88% 0 in 0 W/m2
05:33 67.3 °F 63.7 °F 30 in ESE 0.9 mph 2 mph 88% 0 in 0 W/m2
05:38 67.3 °F 63.7 °F 30 in Calm   2 mph 88% 0 in 0 W/m2
05:43 67.1 °F 63.7 °F 30 in West 4 mph 7 mph 89% 0 in 0 W/m2
05:48 66.9 °F 63.5 °F 30 in WNW 2 mph 4 mph 89% 0 in 0 W/m2
05:53 66.9 °F 63.5 °F 30 in West 2 mph 8 mph 89% 0 in 0 W/m2
05:58 66.9 °F 63.5 °F 30 in NNW 0.9 mph 4 mph 89% 0 in 0 W/m2
06:03 66.9 °F 63.5 °F 30 in NW 6.9 mph 8 mph 89% 0 in 0 W/m2
06:08 66.7 °F 63.3 °F 30 in NW 0.9 mph 4 mph 89% 0 in 0 W/m2
06:13 66.7 °F 63.3 °F 30 in NW 2 mph 3 mph 89% 0 in 0 W/m2
06:18 66.7 °F 63.3 °F 30 in West 0.9 mph 2 mph 89% 0 in 0 W/m2
06:23 66.7 °F 63.3 °F 30 in West 2 mph 2 mph 89% 0 in 0 W/m2
06:28 66.6 °F 63.1 °F 30 in NW 2 mph 2 mph 89% 0 in 0 W/m2
06:33 66.6 °F 63 °F 30 in West 4 mph 7 mph 88% 0 in 0 W/m2
06:38 66.6 °F 63 °F 30 in West 2.9 mph 4 mph 88% 0 in 0 W/m2
06:43 66.4 °F 62.8 °F 30 in NW 2.9 mph 7 mph 88% 0 in 0 W/m2
06:48 66.4 °F 62.8 °F 30 in WNW 2 mph 4 mph 88% 0 in 0 W/m2
06:53 66.2 °F 62.2 °F 30 in West 0.9 mph 4 mph 87% 0 in 5 W/m2
06:58 66.2 °F 62.2 °F 30 in West 2 mph 5 mph 87% 0 in 7 W/m2
07:04 66 °F 62.1 °F 30 in West 2 mph 6 mph 87% 0 in 11 W/m2
07:09 66 °F 61.7 °F 30 in Calm   3 mph 86% 0 in 12 W/m2
07:14 66 °F 61.7 °F 30 in WNW 0.9 mph 6 mph 86% 0 in 19 W/m2
07:19 65.8 °F 61.5 °F 30 in WNW 0.9 mph 8 mph 86% 0 in 25 W/m2
07:24 65.8 °F 61.2 °F 30 in Calm   1 mph 85% 0 in 28 W/m2
07:29 65.8 °F 60.8 °F 30 in NW 2.9 mph 8 mph 84% 0 in 33 W/m2
07:34 66 °F 60.6 °F 30 in WSW 2 mph 3 mph 83% 0 in 35 W/m2
07:39 66 °F 60.6 °F 30 in WNW 2 mph 8 mph 83% 0 in 47 W/m2
07:44 66 °F 60.6 °F 30 in WNW 2 mph 3 mph 83% 0 in 54 W/m2
07:49 66 °F 60.6 °F 30 in West 2.9 mph 3 mph 83% 0 in 49 W/m2
07:54 65.8 °F 60.3 °F 30 in NW 0.9 mph 4 mph 82% 0 in 56 W/m2
07:59 65.8 °F 60.3 °F 30 in NW 6.9 mph 7 mph 82% 0 in 56 W/m2
08:04 65.8 °F 59.5 °F 30 in WNW 2.9 mph 3 mph 80% 0 in 65 W/m2
08:09 65.8 °F 59.2 °F 30 in West 2 mph 4 mph 79% 0 in 79 W/m2
08:14 65.8 °F 59.2 °F 30 in West 4 mph 4 mph 79% 0 in 84 W/m2
08:19 65.8 °F 58.8 °F 30 in WSW 2.9 mph 4 mph 78% 0 in 86 W/m2
08:24 65.8 °F 58.8 °F 30 in West 2 mph 4 mph 78% 0 in 102 W/m2
08:29 65.8 °F 58.8 °F 30 in WNW 2.9 mph 7 mph 78% 0 in 107 W/m2
08:34 65.8 °F 58.8 °F 30 in WSW 2.9 mph 6 mph 78% 0 in 105 W/m2
08:39 65.7 °F 58.3 °F 30 in West 2.9 mph 7 mph 77% 0 in 100 W/m2
08:44 65.7 °F 58.3 °F 30 in West 8.1 mph 8 mph 77% 0 in 95 W/m2
08:49 65.7 °F 57.9 °F 30 in SW 2.9 mph 8 mph 76% 0 in 83 W/m2
08:54 65.5 °F 57.7 °F 30 in WNW 4 mph 13 mph 76% 0 in 77 W/m2
08:59 65.5 °F 57.7 °F 30 in West 2.9 mph 7 mph 76% 0 in 104 W/m2
09:04 65.5 °F 57.7 °F 30 in West 6.9 mph 8 mph 76% 0 in 118 W/m2
09:09 65.5 °F 57.7 °F 30 in WNW 2 mph 7 mph 76% 0 in 244 W/m2
09:14 65.7 °F 57.6 °F 30 in WSW 4 mph 11 mph 75% 0 in 315 W/m2
09:19 66 °F 57.6 °F 30 in West 6.9 mph 14 mph 74% 0 in 306 W/m2
09:24 66.4 °F 57.9 °F 30 in NNW 4 mph 10 mph 74% 0 in 227 W/m2
09:29 66.7 °F 57.7 °F 30 in West 2.9 mph 12 mph 73% 0 in 53 W/m2
09:34 66.7 °F 57.7 °F 30 in West 6 mph 10 mph 73% 0 in 218 W/m2
09:39 66.9 °F 57.6 °F 30 in WNW 4 mph 11 mph 72% 0 in 403 W/m2
09:44 67.5 °F 58.1 °F 30 in WNW 4 mph 6 mph 72% 0 in 415 W/m2
09:49 67.6 °F 57.9 °F 30 in NW 2 mph 12 mph 71% 0 in 425 W/m2
09:54 68.2 °F 58.8 °F 30 in NW 2 mph 4 mph 72% 0 in 443 W/m2
09:59 68.4 °F 58.3 °F 30 in WNW 4 mph 12 mph 70% 0 in 455 W/m2
10:04 68.5 °F 58.3 °F 30 in WNW 4.9 mph 10 mph 70% 0 in 466 W/m2
10:09 68.7 °F 58.5 °F 30 in WSW 4 mph 7 mph 70% 0 in 480 W/m2
10:14 69.1 °F 58.5 °F 30 in WSW 4.9 mph 10 mph 69% 0 in 494 W/m2
10:19 69.1 °F 58.5 °F 30 in NW 4.9 mph 13 mph 69% 0 in 503 W/m2
10:24 69.3 °F 58.6 °F 30 in WNW 6.9 mph 12 mph 69% 0 in 522 W/m2
10:29 69.4 °F 58.8 °F 30 in WSW 2.9 mph 10 mph 69% 0 in 534 W/m2
10:34 69.8 °F 58.8 °F 30 in WSW 8.9 mph 11 mph 68% 0 in 538 W/m2
10:39 70 °F 58.1 °F 30 in WNW 10.1 mph 15 mph 66% 0 in 564 W/m2
10:44 70 °F 57.7 °F 30 in NW 11 mph 11 mph 65% 0 in 566 W/m2
10:49 70.3 °F 57.6 °F 30 in WSW 12.1 mph 14 mph 64% 0 in 573 W/m2
10:54 70.3 °F 57.2 °F 30 in WNW 6.9 mph 13 mph 63% 0 in 591 W/m2
10:59 70.5 °F 58.1 °F 30 in West 13 mph 13 mph 65% 0 in 599 W/m2
11:04 70.5 °F 58.1 °F 30 in NNW 4 mph 9 mph 65% 0 in 635 W/m2
11:09 71.1 °F 58.3 °F 30 in WNW 6 mph 12 mph 64% 0 in 668 W/m2
11:14 71.2 °F 57.9 °F 30 in NW 2 mph 7 mph 63% 0 in 656 W/m2
11:19 71.8 °F 57.6 °F 30 in NW 4 mph 10 mph 61% 0 in 670 W/m2
11:24 71.6 °F 57.9 °F 30 in WNW 8.1 mph 12 mph 62% 0 in 708 W/m2
11:29 71.4 °F 57.2 °F 30 in WNW 4 mph 8 mph 61% 0 in 708 W/m2
11:34 71.4 °F 56.8 °F 30 in SW 8.1 mph 15 mph 60% 0 in 735 W/m2
11:39 71.8 °F 56.7 °F 30 in West 6 mph 12 mph 59% 0 in 726 W/m2
11:44 72.3 °F 57.7 °F 30 in WNW 6.9 mph 14 mph 60% 0 in 738 W/m2
11:49 72.7 °F 57.6 °F 30 in NW 2.9 mph 7 mph 59% 0 in 714 W/m2
11:54 72.9 °F 56.7 °F 30 in NNW 11 mph 14 mph 57% 0 in 744 W/m2
11:59 72.9 °F 57.2 °F 30 in NW 4.9 mph 15 mph 58% 0 in 756 W/m2
12:04 73.4 °F 57.2 °F 30 in NW 2 mph 8 mph 57% 0 in 754 W/m2
12:09 73.8 °F 57 °F 30 in SW 6.9 mph 15 mph 56% 0 in 812 W/m2
12:14 73.6 °F 57.4 °F 30 in NW 4.9 mph 13 mph 57% 0 in 828 W/m2
12:19 73.4 °F 57.2 °F 30 in WNW 2.9 mph 13 mph 57% 0 in 810 W/m2
12:24 73.4 °F 57.2 °F 30 in WSW 15 mph 15 mph 57% 0 in 844 W/m2
12:30 73.9 °F 57.2 °F 30 in NW 6 mph 12 mph 56% 0 in 860 W/m2
12:35 73.8 °F 57.6 °F 30 in SSW 8.1 mph 13 mph 57% 0 in 162 W/m2
12:40 73.9 °F 57.2 °F 30 in WSW 4 mph 10 mph 56% 0 in 819 W/m2
12:45 74.1 °F 56.8 °F 30 in NW 2.9 mph 12 mph 55% 0 in 211 W/m2
12:50 73.9 °F 57.2 °F 30 in WNW 8.9 mph 9 mph 56% 0 in 889 W/m2
12:55 74.3 °F 58.1 °F 30 in West 6 mph 11 mph 57% 0 in 919 W/m2
13:00 74.3 °F 57.6 °F 30 in WNW 8.9 mph 12 mph 56% 0 in 926 W/m2
13:05 73.9 °F 57.2 °F 30 in West 2.9 mph 15 mph 56% 0 in 232 W/m2
13:10 74.7 °F 57.9 °F 30 in WNW 2 mph 4 mph 56% 0 in 940 W/m2
13:15 74.7 °F 56.8 °F 30 in NNW 4 mph 14 mph 54% 0 in 846 W/m2
13:20 74.7 °F 57.4 °F 30 in WSW 4 mph 8 mph 55% 0 in 849 W/m2
13:25 75 °F 57.7 °F 30 in WNW 10.1 mph 14 mph 55% 0 in 904 W/m2
13:30 74.8 °F 57 °F 30 in West 11 mph 12 mph 54% 0 in 881 W/m2
13:35 73.9 °F 56.3 °F 30 in WSW 4 mph 18 mph 54% 0 in 174 W/m2
13:40 73.8 °F 57 °F 30 in NW 4 mph 8 mph 56% 0 in 174 W/m2
13:45 73.9 °F 56.8 °F 30 in North 4 mph 18 mph 55% 0 in 160 W/m2
13:50 74.5 °F 56.7 °F 30 in West 6 mph 8 mph 54% 0 in 244 W/m2
13:55 74.1 °F 56.5 °F 30 in WSW 4 mph 9 mph 54% 0 in 244 W/m2
14:00 74.5 °F 56.7 °F 30 in WNW 8.9 mph 9 mph 54% 0 in 404 W/m2
14:05 74.7 °F 56.8 °F 30 in West 6 mph 8 mph 54% 0 in 988 W/m2
14:10 75 °F 57.2 °F 30 in WNW 4 mph 7 mph 54% 0 in 378 W/m2
14:15 75 °F 56.7 °F 30 in WNW 4.9 mph 9 mph 53% 0 in 348 W/m2
14:20 75 °F 56.7 °F 30 in SW 8.9 mph 14 mph 53% 0 in 357 W/m2
14:26 74.8 °F 57 °F 30 in WNW 2.9 mph 9 mph 54% 0 in 330 W/m2
14:31 74.8 °F 57 °F 30 in NW 6.9 mph 8 mph 54% 0 in 849 W/m2
14:36 75.4 °F 57 °F 30 in NNW 8.1 mph 15 mph 53% 0 in 802 W/m2
14:41 74.8 °F 57 °F 30 in West 11 mph 11 mph 54% 0 in 214 W/m2
14:46 74.7 °F 56.8 °F 30 in WSW 4.9 mph 10 mph 54% 0 in 251 W/m2
14:51 74.1 °F 55.9 °F 30 in West 6 mph 12 mph 53% 0 in 214 W/m2
14:56 73.9 °F 56.3 °F 30 in West 6.9 mph 15 mph 54% 0 in 132 W/m2
15:01 73.8 °F 56.7 °F 30 in West 4 mph 11 mph 55% 0 in 236 W/m2
15:06 74.5 °F 57.2 °F 30 in West 6 mph 8 mph 55% 0 in 856 W/m2
15:11 75.2 °F 57.9 °F 30 in WSW 4.9 mph 10 mph 55% 0 in 142 W/m2
15:16 75.6 °F 56.7 °F 30 in West 10.1 mph 11 mph 52% 0 in 798 W/m2
15:21 75.9 °F 56.5 °F 30 in West 8.1 mph 11 mph 51% 0 in 677 W/m2
15:26 76.1 °F 56.1 °F 30 in SW 12.1 mph 18 mph 50% 0 in 701 W/m2
15:31 76.1 °F 56.1 °F 30 in Calm   8 mph 50% 0 in 640 W/m2
15:36 75.9 °F 55.9 °F 30 in West 6.9 mph 18 mph 50% 0 in 165 W/m2
15:41 75.2 °F 55.8 °F 30 in NW 2.9 mph 9 mph 51% 0 in 181 W/m2
15:46 74.8 °F 56.1 °F 30 in WSW 4 mph 12 mph 52% 0 in 308 W/m2
15:51 75.4 °F 55.9 °F 30 in NNW 4.9 mph 8 mph 51% 0 in 179 W/m2
15:56 75.4 °F 55.9 °F 30 in WNW 4.9 mph 8 mph 51% 0 in 206 W/m2
16:01 75 °F 55.6 °F 30 in NNW 6 mph 7 mph 51% 0 in 123 W/m2
16:06 74.8 °F 56.1 °F 30 in WSW 4.9 mph 5 mph 52% 0 in 135 W/m2
16:11 75 °F 55.6 °F 30 in WSW 4 mph 4 mph 51% 0 in 190 W/m2
16:16 75.4 °F 55.9 °F 30 in West 6.9 mph 8 mph 51% 0 in 223 W/m2
16:21 75.6 °F 55 °F 30 in WSW 10.1 mph 10 mph 49% 0 in 181 W/m2
16:26 75.4 °F 54.9 °F 30 in SW 2 mph 6 mph 49% 0 in 105 W/m2
16:31 75.2 °F 54.7 °F 30 in West 2.9 mph 7 mph 49% 0 in 192 W/m2
16:36 75.6 °F 55 °F 30 in West 11 mph 15 mph 49% 0 in 290 W/m2
16:41 75.4 °F 54.9 °F 30 in WNW 6 mph 13 mph 49% 0 in 213 W/m2
16:46 75.6 °F 55 °F 30 in West 6.9 mph 15 mph 49% 0 in 195 W/m2
16:51 75.4 °F 54.9 °F 30 in West 6.9 mph 12 mph 49% 0 in 206 W/m2
16:56 75.4 °F 54.9 °F 30 in West 6.9 mph 13 mph 49% 0 in 264 W/m2
17:01 75.6 °F 55 °F 30 in WSW 2.9 mph 8 mph 49% 0 in 290 W/m2
17:06 75.7 °F 55.2 °F 30 in WSW 2.9 mph 11 mph 49% 0 in 274 W/m2
17:11 75.9 °F 54.9 °F 30 in WSW 8.1 mph 10 mph 48% 0 in 260 W/m2
17:16 75.9 °F 54.9 °F 30 in NW 10.1 mph 13 mph 48% 0 in 278 W/m2
17:21 75.9 °F 55.4 °F 30 in NW 2 mph 4 mph 49% 0 in 366 W/m2
17:26 76.3 °F 55.8 °F 30 in West 2 mph 6 mph 49% 0 in 246 W/m2
17:31 76.3 °F 55.2 °F 30 in NW 6 mph 10 mph 48% 0 in 239 W/m2
17:37 75.9 °F 54.9 °F 30 in West 6 mph 7 mph 48% 0 in 274 W/m2
17:42 76.1 °F 55 °F 30 in WSW 12.1 mph 13 mph 48% 0 in 287 W/m2
17:47 76.1 °F 55 °F 30 in SE 0.9 mph 8 mph 48% 0 in 290 W/m2
17:52 76.3 °F 54.5 °F 30 in NW 2.9 mph 13 mph 47% 0 in 260 W/m2
17:57 76.1 °F 54.3 °F 30 in SSW 4.9 mph 8 mph 47% 0 in 260 W/m2
18:02 76.3 °F 54.5 °F 30 in WSW 6.9 mph 11 mph 47% 0 in 213 W/m2
18:07 76.3 °F 54 °F 30 in WNW 4 mph 7 mph 46% 0 in 171 W/m2
18:12 76.3 °F 54 °F 30 in WNW 2.9 mph 10 mph 46% 0 in 227 W/m2
18:17 76.3 °F 54 °F 30 in West 6 mph 7 mph 46% 0 in 251 W/m2
18:22 76.3 °F 53.4 °F 30 in SW 6 mph 8 mph 45% 0 in 178 W/m2
18:27 76.3 °F 54 °F 30 in SW 0.9 mph 8 mph 46% 0 in 153 W/m2
18:32 76.1 °F 53.8 °F 30 in West 2.9 mph 6 mph 46% 0 in 155 W/m2
18:37 75.9 °F 53.6 °F 30 in WSW 4.9 mph 9 mph 46% 0 in 156 W/m2
18:42 75.9 °F 53.1 °F 30 in NW 11 mph 13 mph 45% 0 in 206 W/m2
18:47 76.3 °F 53.4 °F 30 in NNW 4 mph 6 mph 45% 0 in 207 W/m2
18:52 76.5 °F 53.6 °F 30 in West 6.9 mph 11 mph 45% 0 in 206 W/m2
18:57 76.5 °F 53.6 °F 30 in West 6 mph 10 mph 45% 0 in 248 W/m2
19:02 75.9 °F 53.1 °F 30 in NW 6 mph 9 mph 45% 0 in 81 W/m2
19:07 75.6 °F 53.2 °F 30 in WNW 2.9 mph 7 mph 46% 0 in 77 W/m2
19:12 75.4 °F 53.2 °F 30 in SW 2 mph 10 mph 46% 0 in 137 W/m2
19:17 75.2 °F 53.6 °F 30 in WNW 2.9 mph 7 mph 47% 0 in 123 W/m2
19:22 75.4 °F 53.8 °F 30 in NW 2.9 mph 7 mph 47% 0 in 197 W/m2
19:27 75.4 °F 53.8 °F 30 in NW 4 mph 8 mph 47% 0 in 162 W/m2
19:32 75.4 °F 54.3 °F 30 in WSW 0.9 mph 6 mph 48% 0 in 91 W/m2
19:37 75.2 °F 53.6 °F 30 in WNW 2.9 mph 6 mph 47% 0 in 44 W/m2
19:42 75 °F 54 °F 30 in WNW 2.9 mph 9 mph 48% 0 in 37 W/m2
19:47 74.8 °F 53.8 °F 30 in SW 2 mph 9 mph 48% 0 in 35 W/m2
19:52 74.5 °F 54.1 °F 30 in West 2 mph 2 mph 49% 0 in 30 W/m2
19:57 74.1 °F 53.8 °F 30 in West 0.9 mph 4 mph 49% 0 in 28 W/m2
20:02 73.9 °F 54.1 °F 30 in WNW 2 mph 3 mph 50% 0 in 26 W/m2
20:07 73.8 °F 54 °F 30 in WNW 2 mph 4 mph 50% 0 in 18 W/m2
20:12 73.6 °F 53.8 °F 30 in WSW 6 mph 11 mph 50% 0 in 14 W/m2
20:18 73.6 °F 53.8 °F 30 in WNW 4 mph 7 mph 50% 0 in 12 W/m2
20:23 73.6 °F 53.8 °F 30 in WNW 2 mph 4 mph 50% 0 in 11 W/m2
20:28 73.6 °F 53.8 °F 30 in West 8.1 mph 10 mph 50% 0 in 9 W/m2
20:33 73.6 °F 54.3 °F 30 in SW 2 mph 3 mph 51% 0 in 5 W/m2
20:38 73.2 °F 54 °F 30 in SSW 0.9 mph 10 mph 51% 0 in 0 W/m2
20:43 73 °F 53.8 °F 30 in West 2.9 mph 4 mph 51% 0 in 0 W/m2
20:48 73 °F 53.8 °F 30 in WNW 2 mph 8 mph 51% 0 in 0 W/m2
20:53 72.9 °F 53.6 °F 30 in WSW 0.9 mph 9 mph 51% 0 in 0 W/m2
20:58 72.7 °F 54 °F 30 in NW 2.9 mph 6 mph 52% 0 in 0 W/m2
21:03 72.7 °F 54 °F 30 in WSW 2.9 mph 5 mph 52% 0 in 0 W/m2
21:08 72.3 °F 53.8 °F 30 in West 2.9 mph 3 mph 52% 0 in 0 W/m2
21:13 72.1 °F 54.1 °F 30 in Calm   2 mph 53% 0 in 0 W/m2
21:18 72 °F 54.3 °F 30 in West 0.9 mph 2 mph 54% 0 in 0 W/m2
21:23 71.4 °F 54.9 °F 30 in Calm   1 mph 56% 0 in 0 W/m2
21:28 71.1 °F 55 °F 30 in West 2 mph 2 mph 57% 0 in 0 W/m2
21:33 70.3 °F 55.4 °F 30 in Calm     59% 0 in 0 W/m2
21:38 70 °F 55.4 °F 30 in Calm   2 mph 60% 0 in 0 W/m2
21:43 69.4 °F 54.9 °F 30 in West 0.9 mph 1 mph 60% 0 in 0 W/m2
21:48 69.1 °F 55.6 °F 30 in Calm   2 mph 62% 0 in 0 W/m2
21:53 68.5 °F 55 °F 30 in Calm   1 mph 62% 0 in 0 W/m2
21:59 68.2 °F 55 °F 30 in Calm   1 mph 63% 0 in 0 W/m2
22:04 67.8 °F 55.6 °F 30 in West 0.9 mph 1 mph 65% 0 in 0 W/m2
22:09 67.6 °F 55.4 °F 30 in Calm     65% 0 in 0 W/m2
22:14 67.3 °F 55 °F 30 in Calm     65% 0 in 0 W/m2
22:19 66.9 °F 55.2 °F 30 in Calm   2 mph 66% 0 in 0 W/m2
22:24 66.7 °F 55 °F 30 in Calm   2 mph 66% 0 in 0 W/m2
22:29 66.7 °F 55 °F 30 in West 0.9 mph 1 mph 66% 0 in 0 W/m2
22:34 66.7 °F 55 °F 30 in Calm     66% 0 in 0 W/m2
22:39 67.3 °F 54.3 °F 30 in SSW 2 mph 5 mph 63% 0 in 0 W/m2
22:44 68.4 °F 54.9 °F 30 in NW 4 mph 8 mph 62% 0 in 0 W/m2
22:49 68.9 °F 54.5 °F 30 in WNW 2.9 mph 6 mph 60% 0 in 0 W/m2
22:54 69.1 °F 54.7 °F 30 in NNW 2 mph 8 mph 60% 0 in 0 W/m2
22:59 69.3 °F 55.2 °F 30 in Calm   1 mph 61% 0 in 0 W/m2
23:04 69.1 °F 55 °F 30 in North 0.9 mph 1 mph 61% 0 in 0 W/m2
23:09 68.5 °F 55 °F 30 in Calm     62% 0 in 0 W/m2
23:14 68.4 °F 55.2 °F 30 in Calm     63% 0 in 0 W/m2
23:19 67.8 °F 54.7 °F 30 in Calm   1 mph 63% 0 in 0 W/m2
23:24 67.6 °F 54.7 °F 30 in Calm     63% 0 in 0 W/m2
23:29 67.6 °F 54.7 °F 30 in Calm   1 mph 63% 0 in 0 W/m2
23:34 67.8 °F 54.3 °F 30 in Calm   1 mph 62% 0 in 0 W/m2
23:39 67.8 °F 54.7 °F 30 in Calm   1 mph 63% 0 in 0 W/m2
23:44 67.8 °F 54.7 °F 30 in West 0.9 mph 3 mph 63% 0 in 0 W/m2
23:49 67.8 °F 54.3 °F 30 in Calm   1 mph 62% 0 in 0 W/m2
23:54 67.8 °F 55.2 °F 30 in Calm     64% 0 in 0 W/m2
23:59 67.6 °F 54.7 °F 30 in WNW 0.9 mph 2 mph 63% 0 in 0 W/m2
Juneau County Weather
Compliments of Weather Underground - 4 mb